• Join FlightAware (Why Join?)
  • Login
  • US Flag 
01:03PM EST


 

Airport Tracker/Info


-or-


 

Live Flight TrackerFlight Track Log ✈ AAL963 ✈ 05-Nov-2013 ✈ KDFW - SBGR / GRU

Flight Track Log - Related Links

Times and Time Zones

All times are in EST time to prevent confusion due to time zone crossing. See the AAL963 flight status page for this flight to view local times or setup timezone preferences in your user account.

Time Position Orientation Groundspeed Altitude Reporting Facility
EST Latitude Longitude Course Direction KTS MPH feet Rate Location/Type
09:58PM 32.8570 -97.0510 180° South 173 199 2,500  Level FlightAware
09:59PM 32.8190 -97.0520 181° South 222 255 3,100 1,260 Climbing FlightAware
09:59PM 32.7892 -97.0531 182° South 240 276 4,100 1,920 Climbing FlightAware ADS-B (KAFW)
10:00PM 32.7364 -97.0455 173° South 257 296 5,900 2,220 Climbing FlightAware ADS-B (KAFW)
10:00PM 32.7073 -97.0311 157° South 263 303 6,700 2,520 Climbing FlightAware ADS-B (KAFW)
10:01PM 32.6660 -97.0090 156° South 264 304 8,200 2,160 Climbing FlightAware
10:02PM 32.6071 -96.9788 157° South 273 314 10,000 1,560 Climbing FlightAware ADS-B (KAFW)
10:03PM 32.4820 -96.9150 157° South 347 399 12,100 1,500 Climbing FlightAware
10:04PM 32.3940 -96.8700 157° South 381 438 13,700 1,980 Climbing FlightAware
10:06PM 32.2630 -96.8063 158° South 387 445 16,600 2,040 Climbing FlightAware ADS-B
10:06PM 32.2066 -96.7855 163° South 396 456 17,600 1,860 Climbing FlightAware ADS-B
10:07PM 32.1444 -96.7622 162° South 404 465 18,700 1,800 Climbing FlightAware ADS-B
10:07PM 32.0777 -96.7370 162° South 411 473 19,800 1,920 Climbing FlightAware ADS-B
10:08PM 32.0215 -96.7154 162° South 413 475 20,900 1,860 Climbing FlightAware ADS-B
10:08PM 31.9633 -96.6933 162° South 418 481 21,800 1,500 Climbing FlightAware ADS-B
10:09PM 31.9059 -96.6716 162° South 426 490 22,500 1,200 Climbing FlightAware ADS-B
10:09PM 31.8462 -96.6484 162° South 435 501 23,100 1,260 Climbing FlightAware ADS-B
10:10PM 31.7840 -96.6224 160° South 441 507 23,900 1,380 Climbing FlightAware ADS-B
10:10PM 31.7246 -96.5977 161° South 445 512 24,600 1,740 Climbing FlightAware ADS-B
10:11PM 31.6657 -96.5735 161° South 437 503 25,700 2,340 Climbing FlightAware ADS-B
10:11PM 31.6163 -96.5534 161° South 424 488 26,900 2,760 Climbing FlightAware ADS-B (ESKB)
10:11PM 31.6089 -96.5504 161° South 423 487 27,100 1,200 Climbing FlightAware ADS-B
10:12PM 31.5518 -96.5274 161° South 428 493 27,600 960 Climbing FlightAware ADS-B
10:12PM 31.5428 -96.5237 161° South 430 495 27,700 540 Climbing FlightAware ADS-B (ESKB)
10:12PM 31.4940 -96.5043 161° South 432 497 27,900 420 Climbing FlightAware ADS-B
10:13PM 31.4345 -96.4824 163° South 437 503 28,100 480 Climbing FlightAware ADS-B
10:13PM 31.3733 -96.4599 163° South 450 518 28,400 480 Climbing FlightAware ADS-B
10:14PM 31.3633 -96.4562 162° South 453 521 28,400 360 Level FlightAware ADS-B (ESKB)
10:14PM 31.3115 -96.4368 162° South 460 529 28,600 720 Climbing FlightAware ADS-B
10:14PM 31.2836 -96.4263 162° South 463 533 28,900 1,200 Climbing FlightAware ADS-B (ESKB)
10:15PM 31.2485 -96.4131 162° South 466 536 29,200 900 Climbing FlightAware ADS-B
10:15PM 31.2132 -96.3997 162° South 472 543 29,400 540 Climbing FlightAware ADS-B
10:15PM 31.2030 -96.3950 158° South 476 548 29,400 720 Level FlightAware ADS-B
10:15PM 31.2009 -96.3939 156° South 476 548 29,500 1,080 Climbing FlightAware ADS-B (ESKB)
10:15PM 31.1826 -96.3826 152° Southeast 485 558 29,600 840 Climbing FlightAware ADS-B
10:15PM 31.1715 -96.3740 146° Southeast 490 564 29,700 1,080 Climbing FlightAware ADS-B
10:15PM 31.1617 -96.3652 142° Southeast 493 567 29,800 1,500 Climbing FlightAware ADS-B (ESKB)
10:15PM 31.1558 -96.3593 140° Southeast 495 570 29,900 1,860 Climbing FlightAware ADS-B
10:16PM 31.1354 -96.3340 133° Southeast 502 578 30,300 1,620 Climbing FlightAware ADS-B
10:16PM 31.1321 -96.3290 128° Southeast 504 580 30,400 1,080 Climbing FlightAware ADS-B (ESKB)
10:16PM 31.0921 -96.2649 126° Southeast 507 583 30,900 1,200 Climbing FlightAware ADS-B
10:16PM 31.0879 -96.2580 126° Southeast 506 582 31,000 180 Climbing FlightAware ADS-B (ESKB)
10:17PM 31.0514 -96.1981 125° Southeast 504 580 31,000  Level FlightAware ADS-B
10:17PM 31.0462 -96.1894 125° Southeast 505 581 31,000  Level FlightAware ADS-B (ESKB)
10:17PM 31.0097 -96.1294 125° Southeast 505 581 31,000  Level FlightAware ADS-B
10:17PM 30.9888 -96.0950 125° Southeast 506 582 31,000  Level FlightAware ADS-B (ESKB)
10:18PM 30.9683 -96.0618 126° Southeast 508 585 31,000  Level FlightAware ADS-B
10:18PM 30.9268 -95.9944 126° Southeast 505 581 31,000  Level FlightAware ADS-B
10:19PM 30.8840 -95.9252 126° Southeast 502 578 31,000  Level FlightAware ADS-B
10:19PM 30.8430 -95.8591 126° Southeast 502 578 31,000  Level FlightAware ADS-B
10:19PM 30.8320 -95.8414 126° Southeast 502 578 31,000  Level FlightAware ADS-B (ESKB)
10:20PM 30.8015 -95.7925 126° Southeast 501 577 31,000  Level FlightAware ADS-B
10:20PM 30.7761 -95.7519 126° Southeast 502 578 31,000  Level FlightAware ADS-B (ESKB)
10:20PM 30.7603 -95.7266 126° Southeast 503 579 31,000  Level FlightAware ADS-B
10:21PM 30.7213 -95.6639 126° Southeast 504 580 31,000  Level FlightAware ADS-B (ESKB)
10:21PM 30.7191 -95.6604 126° Southeast 504 580 31,000  Level FlightAware ADS-B
10:21PM 30.6779 -95.5944 126° Southeast 502 578 31,000  Level FlightAware ADS-B
10:22PM 30.6237 -95.5078 126° Southeast 500 575 31,000  Level FlightAware ADS-B
10:22PM 30.5826 -95.4421 126° Southeast 499 574 31,000  Level FlightAware ADS-B
10:23PM 30.5419 -95.3772 126° Southeast 497 572 31,000  Level FlightAware ADS-B
10:23PM 30.5007 -95.3118 126° Southeast 497 572 31,000  Level FlightAware ADS-B
10:24PM 30.4590 -95.2454 126° Southeast 498 573 31,000  Level FlightAware ADS-B
10:24PM 30.4178 -95.1802 126° Southeast 499 574 31,000  Level FlightAware ADS-B
10:25PM 30.3745 -95.1116 126° Southeast 500 575 31,000  Level FlightAware ADS-B
10:25PM 30.3333 -95.0463 126° Southeast 500 575 31,000  Level FlightAware ADS-B
10:25PM 30.3272 -95.0368 127° Southeast 500 575 31,000  Level FlightAware ADS-B
10:26PM 30.2921 -94.9813 126° Southeast 499 574 31,000  Level FlightAware ADS-B
10:26PM 30.2724 -94.9503 126° Southeast 499 574 31,000  Level FlightAware ADS-B
10:26PM 30.2508 -94.9164 126° Southeast 499 574 31,000  Level FlightAware ADS-B
10:26PM 30.2311 -94.8854 126° Southeast 499 574 31,000  Level FlightAware ADS-B
10:27PM 30.2092 -94.8509 126° Southeast 501 577 31,000  Level FlightAware ADS-B
10:27PM 30.1894 -94.8197 126° Southeast 501 577 31,000  Level FlightAware ADS-B
10:27PM 30.1680 -94.7861 126° Southeast 499 574 31,000  Level FlightAware ADS-B
10:28PM 30.1351 -94.7345 126° Southeast 499 574 31,000  Level FlightAware ADS-B
10:28PM 30.1266 -94.7212 126° Southeast 497 572 31,000  Level FlightAware ADS-B
10:28PM 30.0943 -94.6707 126° Southeast 496 571 31,000  Level FlightAware ADS-B
10:28PM 30.0856 -94.6570 126° Southeast 495 570 31,000  Level FlightAware ADS-B
10:29PM 30.0544 -94.6083 126° Southeast 493 567 31,000  Level FlightAware ADS-B
10:29PM 30.0445 -94.5928 127° Southeast 493 567 31,000  Level FlightAware ADS-B
10:29PM 30.0033 -94.5286 127° Southeast 493 567 31,000  Level FlightAware ADS-B
10:30PM 29.9619 -94.4641 127° Southeast 493 567 31,000  Level FlightAware ADS-B
10:30PM 29.9469 -94.4407 127° Southeast 493 567 31,000  Level FlightAware ADS-B
10:30PM 29.9211 -94.4006 127° Southeast 493 567 31,000  Level FlightAware ADS-B
10:31PM 29.9063 -94.3777 127° Southeast 493 567 31,000  Level FlightAware ADS-B
10:31PM 29.8798 -94.3366 127° Southeast 493 567 31,000  Level FlightAware ADS-B
10:31PM 29.8625 -94.3097 127° Southeast 493 567 31,000  Level FlightAware ADS-B
10:31PM 29.8390 -94.2733 127° Southeast 493 567 31,000  Level FlightAware ADS-B
10:32PM 29.8126 -94.2324 127° Southeast 493 567 31,000  Level FlightAware ADS-B
10:32PM 29.7977 -94.2092 127° Southeast 493 567 31,000  Level FlightAware ADS-B
10:32PM 29.7675 -94.1626 127° Southeast 492 566 31,000  Level FlightAware ADS-B
10:32PM 29.7569 -94.1462 127° Southeast 492 566 31,000  Level FlightAware ADS-B
10:33PM 29.7156 -94.0827 127° Southeast 494 568 31,000  Level FlightAware ADS-B
10:33PM 29.6950 -94.0551 131° Southeast 491 565 31,000  Level FlightAware ADS-B
10:33PM 29.6749 -94.0319 135° Southeast 488 562 31,000  Level FlightAware ADS-B
10:33PM 29.6640 -94.0207 138° Southeast 487 560 31,000  Level FlightAware ADS-B
10:34PM 29.6227 -93.9827 141° Southeast 485 558 31,000  Level FlightAware ADS-B
10:34PM 29.6105 -93.9722 143° Southeast 485 558 31,000  Level FlightAware ADS-B
10:34PM 29.5687 -93.9364 143° Southeast 485 558 31,000  Level FlightAware ADS-B
10:34PM 29.5551 -93.9249 144° Southeast 486 559 31,000  Level FlightAware ADS-B
10:35PM 29.5124 -93.8887 144° Southeast 487 560 31,000  Level FlightAware ADS-B
10:35PM 29.4574 -93.8421 144° Southeast 486 559 31,000  Level FlightAware ADS-B
10:35PM 29.4459 -93.8322 143° Southeast 485 558 31,000  Level FlightAware ADS-B
10:36PM 29.4028 -93.7956 143° Southeast 485 558 31,000  Level FlightAware ADS-B
10:36PM 29.3911 -93.7856 143° Southeast 485 558 31,000  Level FlightAware ADS-B
10:36PM 29.3481 -93.7490 143° Southeast 484 557 31,000  Level FlightAware ADS-B
10:37PM 29.3216 -93.7263 143° Southeast 483 556 31,000  Level FlightAware ADS-B
10:37PM 29.2936 -93.7025 143° Southeast 483 556 31,000  Level FlightAware ADS-B
10:37PM 29.2654 -93.6786 143° Southeast 483 556 31,000  Level FlightAware ADS-B
10:37PM 29.2382 -93.6554 143° Southeast 482 555 31,000  Level FlightAware ADS-B
10:38PM 29.1841 -93.6095 143° Southeast 482 555 31,000  Level FlightAware ADS-B
10:38PM 29.1263 -93.5607 144° Southeast 484 557 31,000  Level FlightAware ADS-B
10:39PM 29.0447 -93.4918 144° Southeast 485 558 31,000  Level FlightAware ADS-B
10:40PM 28.9779 -93.4354 144° Southeast 488 562 31,000  Level FlightAware ADS-B
10:41PM 28.8874 -93.3593 144° Southeast 488 562 31,000  Level FlightAware ADS-B
10:41PM 28.8730 -93.3410 132° Southeast 482 555 31,000  Level FlightAware
10:42PM 28.8370 -93.3100 143° Southeast 482 555 31,000  Level FlightAware
10:43PM 28.7460 -93.2320 143° Southeast 482 555 31,000  Level FlightAware
10:43PM 28.6940 -93.1880 143° Southeast 482 555 31,000  Level FlightAware
10:44PM 28.6200 -93.1240 143° Southeast 482 555 31,000  Level FlightAware
10:45PM 28.5290 -93.0460 143° Southeast 482 555 31,000  Level FlightAware
10:46PM 28.4750 -93.0000 143° Southeast 482 555 31,000  Level FlightAware
10:47PM 28.3830 -92.9200 143° Southeast 482 555 31,000  Level FlightAware
10:47PM 28.3450 -92.8880 143° Southeast 482 555 31,000 -120 Level FlightAware
10:48PM 28.1181 -92.7178 143° Southeast 486 559 30,900 -60 Descending Houston Center
10:49PM 27.9864 -92.6100 144° Southeast 485 558 30,900  Level Houston Center
10:50PM 27.8767 -92.5189 144° Southeast 488 562 31,000  Climbing Houston Center
10:51PM 27.7658 -92.4275 144° Southeast 491 565 30,900 -60 Descending Houston Center
10:52PM 27.6547 -92.3375 144° Southeast 493 567 30,900  Level Houston Center
10:53PM 27.5436 -92.2475 144° Southeast 492 566 30,900  Level Houston Center
10:54PM 27.4314 -92.1592 145° Southeast 492 566 31,000  Climbing Houston Center
10:56PM 27.2738 -92.0245 143° Southeast  Level FlightAware Approximate
11:03PM 26.5238 -91.4207 144° Southeast  Level FlightAware Approximate
11:04PM 26.4161 -91.3355 145° Southeast  Level FlightAware Approximate
11:05PM 26.3084 -91.2505 145° Southeast  Level FlightAware Approximate
11:06PM 26.2006 -91.1657 145° Southeast  Level FlightAware Approximate
11:07PM 26.0928 -91.0810 145° Southeast  Level FlightAware Approximate
11:08PM 25.9850 -90.9965 145° Southeast  Level FlightAware Approximate
11:09PM 25.8771 -90.9121 145° Southeast  Level FlightAware Approximate
11:10PM 25.7691 -90.8279 145° Southeast  Level FlightAware Approximate
11:11PM 25.6611 -90.7439 145° Southeast  Level FlightAware Approximate
11:12PM 25.5531 -90.6599 145° Southeast  Level FlightAware Approximate
11:13PM 25.4450 -90.5762 145° Southeast  Level FlightAware Approximate
11:14PM 25.3369 -90.4926 145° Southeast  Level FlightAware Approximate
11:15PM 25.2287 -90.4091 145° Southeast  Level FlightAware Approximate
11:16PM 25.1204 -90.3258 145° Southeast  Level FlightAware Approximate
11:17PM 25.0121 -90.2427 145° Southeast  Level FlightAware Approximate
11:18PM 24.9040 -90.1594 145° Southeast  Level FlightAware Approximate
11:19PM 24.7958 -90.0763 145° Southeast  Level FlightAware Approximate
11:20PM 24.6875 -89.9933 145° Southeast  Level FlightAware Approximate
11:21PM 24.5794 -89.9106 145° Southeast  Level FlightAware Approximate
11:22PM 24.4731 -89.8254 145° Southeast  Level FlightAware Approximate
11:23PM 24.3653 -89.7424 145° Southeast  Level FlightAware Approximate
11:24PM 24.2571 -89.6600 148° Southeast  Level FlightAware Approximate
11:24PM 24.0920 -89.5430 148° Southeast 497 572 31,000  Level FlightAware
11:25PM 24.0140 -89.4830 145° Southeast 497 572 31,000  Level FlightAware
11:25PM 23.9560 -89.4390 145° Southeast 497 572 31,000  Level FlightAware
11:26PM 23.8980 -89.3950 145° Southeast 497 572 31,000  Level FlightAware
11:26PM 23.7930 -89.3180 146° Southeast 31,000  Level FlightAware
11:27PM 23.7370 -89.2760 146° Southeast 491 565 31,000  Level FlightAware
11:28PM 23.6530 -89.2130 146° Southeast 491 565 31,000  Level FlightAware
11:28PM 23.5850 -89.1620 145° Southeast 491 565 31,000 840 Level FlightAware
11:29PM 23.4510 -89.0610 145° Southeast 492 566 32,300 1,020 Climbing FlightAware
11:30PM 23.3330 -88.9740 146° Southeast 484 557 33,000 360 Climbing FlightAware
11:31PM 23.2890 -88.9410 145° Southeast 485 558 33,000  Level FlightAware
11:32PM 23.1400 -88.8300 146° Southeast 485 558 33,000  Level FlightAware
11:33PM 23.0510 -88.7640 146° Southeast 486 559 33,000  Level FlightAware
11:33PM 23.0000 -88.7260 146° Southeast 487 560 33,000  Level FlightAware
11:34PM 22.8850 -88.6410 146° Southeast 491 565 33,000  Level FlightAware
11:35PM 22.7740 -88.5590 146° Southeast 492 566 33,000  Level FlightAware
11:36PM 22.6820 -88.4910 146° Southeast 493 567 33,000  Level FlightAware
11:37PM 22.5910 -88.4210 145° Southeast 494 568 33,000  Level FlightAware
11:38PM 22.5060 -88.3360 137° Southeast 494 568 33,000  Level FlightAware
11:39PM 22.4120 -88.2400 137° Southeast 494 568 33,000  Level FlightAware
11:39PM 22.3320 -88.1590 137° Southeast 493 567 33,000  Level FlightAware
11:40PM 22.2450 -88.0710 137° Southeast 491 565 33,000  Level FlightAware
11:41PM 22.2000 -88.0250 137° Southeast 489 563 33,000  Level FlightAware
11:42PM 22.1000 -87.9250 137° Southeast 492 566 33,000  Level FlightAware
11:43PM 22.0160 -87.8400 137° Southeast 494 568 33,000  Level FlightAware
11:43PM 21.9410 -87.7650 137° Southeast 494 568 33,000  Level FlightAware
11:44PM 21.8580 -87.6820 137° Southeast 495 570 33,000  Level FlightAware
11:45PM 21.7670 -87.5910 137° Southeast 494 568 33,000  Level FlightAware
11:46PM 21.7140 -87.5390 138° Southeast 494 568 33,000  Level FlightAware
11:46PM 21.6740 -87.4980 136° Southeast 493 567 33,000  Level FlightAware
11:47PM 21.5800 -87.4050 137° Southeast 492 566 33,000  Level FlightAware
11:48PM 21.4860 -87.3120 137° Southeast 490 564 33,000  Level FlightAware
11:48PM 21.4460 -87.2730 138° Southeast 489 563 33,000  Level FlightAware
11:49PM 21.3830 -87.2110 137° Southeast 488 562 33,000  Level FlightAware
11:49PM 21.3230 -87.1510 137° Southeast 490 564 33,000  Level FlightAware
11:50PM 21.2290 -87.0590 138° Southeast 493 567 33,000  Level FlightAware
11:51PM 21.1180 -86.9500 138° Southeast 493 567 33,000  Level FlightAware
11:52PM 21.0780 -86.9100 137° Southeast 491 565 33,000  Level FlightAware
11:53PM 20.9830 -86.8180 138° Southeast 490 564 33,000  Level FlightAware
11:54PM 20.9040 -86.7420 138° Southeast 491 565 33,000  Level FlightAware
11:54PM 20.8640 -86.7020 137° Southeast 493 567 33,000  Level FlightAware
11:55PM 20.8030 -86.6430 138° Southeast 493 567 33,000  Level FlightAware
11:55PM 20.7350 -86.5770 138° Southeast 489 563 33,000  Level FlightAware
11:56PM 20.6400 -86.4860 138° Southeast 492 566 33,000  Level FlightAware
11:57PM 20.5630 -86.4200 141° Southeast 486 559 33,000  Level FlightAware
11:57PM 20.5050 -86.3950 158° South 476 548 33,000  Level FlightAware
11:59PM 20.3630 -86.3480 163° South 474 545 33,000  Level FlightAware
11:59PM 20.2960 -86.3260 163° South 474 545 33,000  Level FlightAware
12:00AM 20.1900 -86.3020 168° South 469 540 33,000  Level FlightAware
12:01AM 20.0720 -86.3110 184° South 467 537 33,000  Level FlightAware
12:01AM 20.0250 -86.3150 185° South 467 537 33,000  Level FlightAware
12:02AM 19.9540 -86.3210 185° South 468 539 33,000  Level FlightAware
12:03AM 19.8160 -86.3330 185° South 471 542 33,000  Level FlightAware
12:03AM 19.7250 -86.3410 185° South 472 543 33,000  Level FlightAware
12:04AM 19.5960 -86.3530 185° South 473 544 33,000  Level FlightAware
12:05AM 19.4680 -86.3920 196° South 468 539 33,000  Level FlightAware
12:06AM 19.3800 -86.4340 204° Southwest 468 539 33,000  Level FlightAware
12:07AM 19.2780 -86.5080 214° Southwest 465 535 33,000  Level FlightAware
12:08AM 19.2220 -86.5790 230° Southwest 465 535 33,000  Level FlightAware
12:08AM 19.1730 -86.6410 230° Southwest 463 533 33,000  Level FlightAware
12:09AM 19.1270 -86.6990 230° Southwest 464 534 33,000  Level FlightAware
12:10AM 19.0430 -86.8060 230° Southwest 466 536 33,000  Level FlightAware
12:11AM 18.9630 -86.9070 230° Southwest 468 539 33,000  Level FlightAware
12:11AM 18.9310 -86.9490 231° Southwest 468 539 33,000  Level FlightAware
12:12AM 18.8540 -87.0450 230° Southwest 467 537 33,000  Level FlightAware
12:13AM 18.8120 -87.0970 230° Southwest 468 539 33,000  Level FlightAware
12:14AM 18.7550 -87.1690 230° Southwest 468 539 33,000  Level FlightAware
12:15AM 18.6730 -87.3140 239° Southwest 472 543 33,000  Level FlightAware
12:16AM 18.6190 -87.4300 244° Southwest 469 540 33,000  Level FlightAware
12:17AM 18.5680 -87.5400 244° Southwest 469 540 33,000  Level FlightAware
12:17AM 18.5200 -87.6440 244° Southwest 33,000  Level FlightAware
12:19AM 18.4160 -87.7960 234° Southwest 470 541 33,000  Level FlightAware
12:19AM 18.3470 -87.8720 226° Southwest 470 541 33,000  Level FlightAware
12:20AM 18.2920 -87.8980 204° Southwest 473 544 33,000  Level FlightAware
12:21AM 18.2240 -87.9190 196° South 473 544 33,000  Level FlightAware
12:21AM 18.1800 -87.9340 198° South 473 544 33,000  Level FlightAware
12:22AM 18.1160 -87.9540 197° South 473 544 33,000  Level FlightAware
12:23AM 18.0070 -87.9890 197° South 473 544 33,000  Level FlightAware
12:23AM 17.9220 -88.0170 197° South 473 544 33,000  Level FlightAware
12:24AM 17.8360 -88.0440 197° South 473 544 33,000  Level FlightAware
12:25AM 17.7300 -88.0780 197° South 473 544 33,000  Level FlightAware
12:28AM 17.5272 -87.8577 134° Southeast  Level Estimated
12:29AM 17.4357 -87.7585 134° Southeast  Level Estimated
12:30AM 17.3441 -87.6594 134° Southeast  Level Estimated
12:30AM 18.3900 -86.9860 134° Southeast 518 596 33,000  Level FlightAware
12:30AM 18.4760 -86.8870 48° Northeast 517 595 33,000  Level FlightAware
12:32AM 18.5570 -86.7510 58° Northeast 511 588 33,000  Level FlightAware
12:32AM 18.5560 -86.6160 90° East 501 577 33,000  Level FlightAware
12:33AM 18.5150 -86.5230 115° Southeast 497 572 33,000  Level FlightAware
12:34AM 18.4530 -86.3940 117° Southeast 497 572 33,000  Level FlightAware
12:35AM 18.4310 -86.3480 117° Southeast 497 572 33,000  Level FlightAware
12:36AM 18.3600 -86.2030 117° Southeast 532 612 33,000  Level FlightAware
12:39AM 18.0899 -85.9253 136° Southeast  Level Estimated
12:40AM 17.9956 -85.8287 136° Southeast  Level Estimated
12:41AM 17.9013 -85.7321 136° Southeast  Level Estimated
12:42AM 17.8069 -85.6357 136° Southeast  Level Estimated
12:43AM 17.7125 -85.5394 136° Southeast  Level Estimated
12:44AM 17.6180 -85.4431 136° Southeast  Level Estimated
12:45AM 17.5234 -85.3470 136° Southeast  Level Estimated
12:46AM 17.4289 -85.2509 136° Southeast  Level Estimated
12:47AM 17.3342 -85.1550 136° Southeast  Level Estimated
12:48AM 17.2395 -85.0592 136° Southeast  Level Estimated
12:49AM 17.1448 -84.9634 136° Southeast  Level Estimated
12:50AM 17.0501 -84.8678 136° Southeast  Level Estimated
12:51AM 16.9553 -84.7722 136° Southeast  Level Estimated
12:52AM 16.8604 -84.6767 136° Southeast  Level Estimated
12:53AM 16.7655 -84.5814 136° Southeast  Level Estimated
12:54AM 16.6706 -84.4861 136° Southeast  Level Estimated
12:55AM 16.5756 -84.3910 136° Southeast  Level Estimated
12:56AM 16.4806 -84.2959 136° Southeast  Level Estimated
12:57AM 16.3855 -84.2009 136° Southeast  Level Estimated
12:58AM 16.2904 -84.1060 136° Southeast  Level Estimated
12:59AM 16.1952 -84.0112 136° Southeast  Level Estimated
01:00AM 16.1000 -83.9165 136° Southeast  Level Estimated
01:01AM 16.0048 -83.8219 136° Southeast  Level Estimated
01:02AM 15.9095 -83.7273 136° Southeast  Level Estimated
01:03AM 15.8142 -83.6329 136° Southeast  Level Estimated
01:04AM 15.7188 -83.5386 136° Southeast  Level Estimated
01:05AM 15.6234 -83.4443 136° Southeast  Level Estimated
01:06AM 15.5280 -83.3501 136° Southeast  Level Estimated
01:07AM 15.4325 -83.2560 136° Southeast  Level Estimated
01:08AM 15.3370 -83.1620 136° Southeast  Level Estimated
01:09AM 15.2414 -83.0681 137° Southeast  Level Estimated
01:10AM 15.1458 -82.9743 137° Southeast  Level Estimated
01:11AM 15.0502 -82.8806 137° Southeast  Level Estimated
01:12AM 14.9545 -82.7869 137° Southeast  Level Estimated
01:13AM 14.8588 -82.6933 137° Southeast  Level Estimated
01:14AM 14.7630 -82.5998 137° Southeast  Level Estimated
01:15AM 14.6672 -82.5064 137° Southeast  Level Estimated
01:16AM 14.5714 -82.4131 137° Southeast  Level Estimated
01:17AM 14.4755 -82.3198 137° Southeast  Level Estimated
01:18AM 14.3796 -82.2267 137° Southeast  Level Estimated
01:19AM 14.2837 -82.1336 137° Southeast  Level Estimated
01:20AM 14.1877 -82.0406 137° Southeast  Level Estimated
01:21AM 14.0917 -81.9476 137° Southeast  Level Estimated
01:22AM 13.9957 -81.8548 137° Southeast  Level Estimated
01:23AM 13.8996 -81.7620 137° Southeast  Level Estimated
01:24AM 13.8035 -81.6693 137° Southeast  Level Estimated
01:25AM 13.7073 -81.5767 137° Southeast  Level Estimated
01:26AM 13.6111 -81.4842 137° Southeast  Level Estimated
01:27AM 13.5149 -81.3917 137° Southeast  Level Estimated
01:28AM 13.4187 -81.2993 137° Southeast  Level Estimated
01:29AM 13.3224 -81.2070 137° Southeast  Level Estimated
01:30AM 13.2261 -81.1148 137° Southeast  Level Estimated
01:31AM 13.1297 -81.0226 137° Southeast  Level Estimated
01:32AM 13.0333 -80.9305 137° Southeast  Level Estimated
01:33AM 12.9369 -80.8385 137° Southeast  Level Estimated
01:34AM 12.8404 -80.7465 137° Southeast  Level Estimated
01:35AM 12.7440 -80.6546 137° Southeast  Level Estimated
01:36AM 12.6475 -80.5628 137° Southeast  Level Estimated
01:37AM 12.5509 -80.4710 137° Southeast  Level Estimated
01:38AM 12.4543 -80.3794 137° Southeast  Level Estimated
01:39AM 12.3577 -80.2878 137° Southeast  Level Estimated
01:40AM 12.2611 -80.1962 137° Southeast  Level Estimated
01:41AM 12.1644 -80.1047 137° Southeast  Level Estimated
01:42AM 12.0677 -80.0133 137° Southeast  Level Estimated
01:43AM 11.9710 -79.9220 137° Southeast  Level Estimated
01:44AM 11.8742 -79.8307 137° Southeast  Level Estimated
01:45AM 11.7774 -79.7395 137° Southeast  Level Estimated
01:46AM 11.6806 -79.6483 137° Southeast  Level Estimated
01:47AM 11.5837 -79.5573 137° Southeast  Level Estimated
01:48AM 11.4869 -79.4662 137° Southeast  Level Estimated
01:49AM 11.3900 -79.3753 137° Southeast  Level Estimated
01:50AM 11.2930 -79.2844 137° Southeast  Level Estimated
01:51AM 11.1961 -79.1935 137° Southeast  Level Estimated
01:52AM 11.0991 -79.1028 137° Southeast  Level Estimated
01:53AM 11.0021 -79.0121 137° Southeast  Level Estimated
01:54AM 10.9051 -78.9214 137° Southeast  Level Estimated
01:55AM 10.8080 -78.8308 137° Southeast  Level Estimated
01:56AM 10.7109 -78.7403 137° Southeast  Level Estimated
01:57AM 10.6138 -78.6498 138° Southeast  Level Estimated
01:58AM 10.5166 -78.5594 138° Southeast  Level Estimated
01:59AM 10.4195 -78.4690 138° Southeast  Level Estimated
01:59AM 10.9890 -77.4400 138° Southeast 33,000  Level FlightAware
02:00AM 10.3223 -78.3787 138° Southeast  Level Estimated
02:00AM 10.9130 -77.3740 140° Southeast 483 556 33,000  Level FlightAware
02:01AM 10.8440 -77.3100 138° Southeast 483 556 33,000  Level FlightAware
02:02AM 10.7370 -77.2100 137° Southeast 483 556 33,000  Level FlightAware
02:02AM 10.7240 -77.1970 136° Southeast 483 556 33,000  Level FlightAware
02:03AM 10.5780 -77.0620 138° Southeast 483 556 33,000  Level FlightAware
02:04AM 10.4900 -76.9770 136° Southeast 483 556 33,000  Level FlightAware
02:05AM 10.4410 -76.9350 140° Southeast 488 562 33,000  Level FlightAware
02:05AM 10.3730 -76.8710 137° Southeast 481 554 33,000  Level FlightAware
02:06AM 10.2920 -76.7960 138° Southeast 489 563 33,000  Level FlightAware
02:07AM 10.1910 -76.6920 135° Southeast 487 560 33,000  Level FlightAware
02:08AM 10.1460 -76.6340 128° Southeast 487 560 33,000  Level FlightAware
02:09AM 10.1160 -76.5300 106° East 482 555 33,000  Level FlightAware
02:09AM 10.0790 -76.4480 115° Southeast 484 557 33,000  Level FlightAware
02:10AM 10.0470 -76.3740 114° Southeast 485 558 33,000  Level FlightAware
02:10AM 10.0150 -76.3010 114° Southeast 486 559 33,000  Level FlightAware
02:11AM 9.9570 -76.1680 114° Southeast 487 560 33,000  Level FlightAware
02:12AM 9.9220 -76.0860 113° Southeast 488 562 33,000  Level FlightAware
02:13AM 9.8590 -75.9630 117° Southeast 491 565 33,000  Level FlightAware
02:14AM 9.8000 -75.9120 140° Southeast 494 568 33,000  Level FlightAware
02:14AM 9.7380 -75.8730 148° Southeast 494 568 33,000  Level FlightAware
02:15AM 9.6610 -75.8240 148° Southeast 495 570 33,000  Level FlightAware
02:16AM 9.5770 -75.7700 148° Southeast 494 568 33,000  Level FlightAware
02:16AM 9.5180 -75.7310 147° Southeast 494 568 33,000  Level FlightAware
02:17AM 9.4700 -75.7000 148° Southeast 494 568 33,000  Level FlightAware
02:18AM 9.3560 -75.6280 148° Southeast 495 570 33,000  Level FlightAware
02:18AM 9.2870 -75.5840 148° Southeast 494 568 33,000  Level FlightAware
02:19AM 9.2180 -75.5400 148° Southeast 494 568 33,000  Level FlightAware
02:19AM 9.1440 -75.4930 148° Southeast 494 568 33,000  Level FlightAware
02:20AM 9.0830 -75.4530 147° Southeast 493 567 33,000  Level FlightAware
02:21AM 8.9540 -75.4050 160° South 494 568 33,000  Level FlightAware
02:21AM 8.9120 -75.3960 168° South 496 571 33,000  Level FlightAware
02:22AM 8.8170 -75.3770 169° South 497 572 33,000  Level FlightAware
02:23AM 8.7260 -75.3570 168° South 496 571 33,000  Level FlightAware
02:23AM 8.6290 -75.3370 168° South 496 571 33,000  Level FlightAware
02:24AM 8.5120 -75.3120 168° South 496 571 33,000  Level FlightAware
02:25AM 8.4040 -75.2900 169° South 497 572 33,000  Level FlightAware
02:26AM 8.2730 -75.2640 169° South 500 575 33,000  Level FlightAware
02:27AM 8.1290 -75.2380 170° South 504 580 33,000  Level FlightAware
02:28AM 8.0430 -75.2300 175° South 500 575 33,000  Level FlightAware
02:28AM 7.9860 -75.2230 173° South 498 573 33,000  Level FlightAware
02:29AM 7.9160 -75.1990 161° South 491 565 33,000  Level FlightAware
02:29AM 7.8310 -75.1510 151° Southeast 492 566 33,000  Level FlightAware
02:30AM 7.7710 -75.1170 151° Southeast 493 567 33,000  Level FlightAware
02:30AM 7.7170 -75.0870 151° Southeast 494 568 33,000  Level FlightAware
02:31AM 7.6310 -75.0390 151° Southeast 495 570 33,000  Level FlightAware
02:31AM 7.5730 -75.0060 151° Southeast 494 568 33,000  Level FlightAware
02:32AM 7.4560 -74.9390 150° Southeast 492 566 33,000  Level FlightAware
02:33AM 7.3820 -74.8970 151° Southeast 492 566 33,000  Level FlightAware
02:33AM 7.3420 -74.8740 150° Southeast 492 566 33,000  Level FlightAware
02:34AM 7.2530 -74.8230 150° Southeast 493 567 33,000  Level FlightAware
02:35AM 7.1930 -74.7900 151° Southeast 494 568 33,000  Level FlightAware
02:35AM 7.1220 -74.7490 150° Southeast 494 568 33,000  Level FlightAware
02:36AM 7.0140 -74.6880 151° Southeast 491 565 33,000  Level FlightAware
02:37AM 6.9050 -74.6250 150° Southeast 491 565 33,000  Level FlightAware
02:38AM 6.8450 -74.5900 150° Southeast 491 565 33,000  Level FlightAware
02:38AM 6.7840 -74.5550 150° Southeast 491 565 33,000  Level FlightAware
02:39AM 6.7240 -74.5200 150° Southeast 491 565 33,000  Level FlightAware
02:40AM 6.6240 -74.4610 150° Southeast 491 565 33,000  Level FlightAware
02:41AM 6.4250 -74.3600 153° Southeast 490 564 33,000  Level FlightAware
02:42AM 6.3670 -74.3170 144° Southeast 490 564 33,000  Level FlightAware
02:43AM 6.2600 -74.2350 143° Southeast 488 562 33,000  Level FlightAware
02:43AM 6.1660 -74.1630 143° Southeast 488 562 33,000  Level FlightAware
02:44AM 6.1080 -74.1190 143° Southeast 488 562 33,000  Level FlightAware
02:45AM 6.0320 -74.0610 143° Southeast 490 564 33,000  Level FlightAware
02:45AM 5.9720 -74.0140 142° Southeast 490 564 33,000  Level FlightAware
02:46AM 5.9140 -73.9680 142° Southeast 492 566 33,000  Level FlightAware
02:46AM 5.8310 -73.9030 142° Southeast 490 564 33,000  Level FlightAware
02:47AM 5.7740 -73.8580 142° Southeast 486 559 33,000  Level FlightAware
02:48AM 5.7250 -73.8010 131° Southeast 483 556 33,000  Level FlightAware
02:48AM 5.6970 -73.7360 113° Southeast 483 556 33,000  Level FlightAware
02:49AM 5.6560 -73.6160 109° East 481 554 33,000  Level FlightAware
02:50AM 5.6130 -73.4930 109° East 480 552 33,000  Level FlightAware
02:51AM 5.5900 -73.4260 109° East 480 552 33,000  Level FlightAware
02:51AM 5.5580 -73.3250 108° East 483 556 33,000  Level FlightAware
02:52AM 5.5400 -73.2680 108° East 483 556 33,000  Level FlightAware
02:53AM 5.5120 -73.1720 106° East 484 557 33,000  Level FlightAware
02:53AM 5.4890 -73.0910 106° East 485 558 33,000  Level FlightAware
02:54AM 5.4570 -72.9790 106° East 486 559 33,000  Level FlightAware
02:55AM 5.4390 -72.9150 106° East 487 560 33,000  Level FlightAware
02:55AM 5.4150 -72.8310 106° East 489 563 33,000  Level FlightAware
02:56AM 5.3910 -72.7530 107° East 489 563 33,000  Level FlightAware
02:56AM 5.3690 -72.7050 115° Southeast 488 562 33,000  Level FlightAware
02:57AM 5.3290 -72.6190 115° Southeast 488 562 33,000  Level FlightAware
02:58AM 5.3000 -72.5560 115° Southeast 488 562 33,000  Level FlightAware
02:58AM 5.2800 -72.5140 116° Southeast 488 562 33,000  Level FlightAware
02:59AM 5.2410 -72.4300 115° Southeast 488 562 33,000  Level FlightAware
02:59AM 5.2120 -72.3680 115° Southeast 488 562 33,000  Level FlightAware
03:00AM 5.1640 -72.2630 115° Southeast 488 562 33,000  Level FlightAware
03:01AM 5.1340 -72.2000 116° Southeast 488 562 33,000  Level FlightAware
03:02AM 5.0860 -72.0950 115° Southeast 488 562 33,000  Level FlightAware
03:02AM 5.0660 -72.0530 116° Southeast 488 562 33,000  Level FlightAware
03:03AM 5.0360 -71.9890 115° Southeast 488 562 33,000  Level FlightAware
03:04AM 4.9880 -71.8840 115° Southeast 488 562 33,000  Level FlightAware
03:05AM 4.9580 -71.8210 116° Southeast 488 562 33,000  Level FlightAware
03:05AM 4.9390 -71.7790 114° Southeast 488 562 33,000  Level FlightAware
03:06AM 4.9110 -71.7200 115° Southeast 488 562 33,000  Level FlightAware
03:06AM 4.8920 -71.6780 114° Southeast 488 562 33,000  Level FlightAware
03:09AM 4.6328 -71.4604 140° Southeast  Level Estimated
03:10AM 4.5318 -71.3757 140° Southeast  Level Estimated
03:11AM 4.4307 -71.2909 140° Southeast  Level Estimated
03:12AM 4.3297 -71.2063 140° Southeast  Level Estimated
03:13AM 4.2287 -71.1216 140° Southeast  Level Estimated
03:14AM 4.1276 -71.0369 140° Southeast  Level Estimated
03:15AM 4.0266 -70.9523 140° Southeast  Level Estimated
03:16AM 3.9255 -70.8677 140° Southeast  Level Estimated
03:17AM 3.8244 -70.7831 140° Southeast  Level Estimated
03:18AM 3.7233 -70.6986 140° Southeast  Level Estimated
03:19AM 3.6222 -70.6141 140° Southeast  Level Estimated
03:20AM 3.5211 -70.5295 140° Southeast  Level Estimated
03:21AM 3.4200 -70.4450 140° Southeast  Level Estimated
03:22AM 3.3189 -70.3605 140° Southeast  Level Estimated
03:23AM 3.2178 -70.2761 140° Southeast  Level Estimated
03:24AM 3.1166 -70.1916 140° Southeast  Level Estimated
03:25AM 3.0155 -70.1072 140° Southeast  Level Estimated
03:26AM 2.9144 -70.0228 140° Southeast  Level Estimated
03:27AM 2.8132 -69.9383 140° Southeast  Level Estimated
03:28AM 2.7120 -69.8540 140° Southeast  Level Estimated
03:29AM 2.6109 -69.7696 140° Southeast  Level Estimated
03:30AM 2.5097 -69.6852 140° Southeast  Level Estimated
03:31AM 2.4085 -69.6009 140° Southeast  Level Estimated
03:32AM 2.3073 -69.5165 140° Southeast  Level Estimated
03:33AM 2.2062 -69.4322 140° Southeast  Level Estimated
03:34AM 2.1050 -69.3479 140° Southeast  Level Estimated
03:35AM 2.0038 -69.2636 140° Southeast  Level Estimated
03:36AM 1.9026 -69.1793 140° Southeast  Level Estimated
03:37AM 1.8014 -69.0950 140° Southeast  Level Estimated
03:38AM 1.7002 -69.0107 140° Southeast  Level Estimated
03:39AM 1.5990 -68.9265 140° Southeast  Level Estimated
03:40AM 1.4978 -68.8422 140° Southeast  Level Estimated
03:41AM 1.3965 -68.7580 140° Southeast  Level Estimated
03:42AM 1.2953 -68.6737 140° Southeast  Level Estimated
03:43AM 1.1941 -68.5895 140° Southeast  Level Estimated
03:44AM 1.0929 -68.5053 140° Southeast  Level Estimated
03:45AM 0.9916 -68.4211 140° Southeast  Level Estimated
03:46AM 0.8904 -68.3368 140° Southeast  Level Estimated
03:47AM 0.7892 -68.2526 140° Southeast  Level Estimated
03:48AM 0.6879 -68.1684 140° Southeast  Level Estimated
03:49AM 0.5867 -68.0842 140° Southeast  Level Estimated
03:50AM 0.4855 -68.0000 140° Southeast  Level Estimated
03:51AM 0.3842 -67.9158 140° Southeast  Level Estimated
03:52AM 0.2830 -67.8316 140° Southeast  Level Estimated
03:53AM 0.1817 -67.7474 140° Southeast  Level Estimated
03:54AM 0.0805 -67.6632 140° Southeast  Level Estimated
03:55AM -0.0207 -67.5790 140° Southeast  Level Estimated
03:56AM -0.1220 -67.4949 140° Southeast  Level Estimated
03:57AM -0.2232 -67.4107 140° Southeast  Level Estimated
03:58AM -0.3245 -67.3264 140° Southeast  Level Estimated
03:59AM -0.4257 -67.2422 140° Southeast  Level Estimated
04:00AM -0.5269 -67.1581 140° Southeast  Level Estimated
04:01AM -0.6282 -67.0739 140° Southeast  Level Estimated
04:02AM -0.7294 -66.9896 140° Southeast  Level Estimated
04:03AM -0.8306 -66.9054 140° Southeast  Level Estimated
04:04AM -0.9319 -66.8212 140° Southeast  Level Estimated
04:05AM -1.0331 -66.7370 140° Southeast  Level Estimated
04:06AM -1.1343 -66.6528 140° Southeast  Level Estimated
04:07AM -1.2356 -66.5686 140° Southeast  Level Estimated
04:08AM -1.3368 -66.4843 140° Southeast  Level Estimated
04:09AM -1.4380 -66.4001 140° Southeast  Level Estimated
04:10AM -1.5392 -66.3158 140° Southeast  Level Estimated
04:11AM -1.6404 -66.2316 140° Southeast  Level Estimated
04:12AM -1.7416 -66.1473 140° Southeast  Level Estimated
04:13AM -1.8428 -66.0630 140° Southeast  Level Estimated
04:14AM -1.9440 -65.9787 140° Southeast  Level Estimated
04:15AM -2.0452 -65.8944 140° Southeast  Level Estimated
04:16AM -2.1464 -65.8101 140° Southeast  Level Estimated
04:17AM -2.2476 -65.7258 140° Southeast  Level Estimated
04:18AM -2.3488 -65.6415 140° Southeast  Level Estimated
04:19AM -2.4500 -65.5571 140° Southeast  Level Estimated
04:20AM -2.5512 -65.4728 140° Southeast  Level Estimated
04:21AM -2.6523 -65.3884 140° Southeast  Level Estimated
04:22AM -2.7535 -65.3040 140° Southeast  Level Estimated
04:23AM -2.8546 -65.2196 140° Southeast  Level Estimated
04:24AM -2.9558 -65.1352 140° Southeast  Level Estimated
04:25AM -3.0569 -65.0508 140° Southeast  Level Estimated
04:26AM -3.1581 -64.9663 140° Southeast  Level Estimated
04:27AM -3.2592 -64.8819 140° Southeast  Level Estimated
04:28AM -3.3603 -64.7974 140° Southeast  Level Estimated
04:29AM -3.4614 -64.7129 140° Southeast  Level Estimated
04:30AM -3.5626 -64.6284 140° Southeast  Level Estimated
04:31AM -3.6637 -64.5439 140° Southeast  Level Estimated
04:32AM -3.7647 -64.4593 140° Southeast  Level Estimated
04:33AM -3.8658 -64.3747 140° Southeast  Level Estimated
04:34AM -3.9669 -64.2902 140° Southeast  Level Estimated
04:35AM -4.0680 -64.2056 140° Southeast  Level Estimated
04:36AM -4.1690 -64.1209 140° Southeast  Level Estimated
04:37AM -4.2701 -64.0363 140° Southeast  Level Estimated
04:38AM -4.3711 -63.9516 140° Southeast  Level Estimated
04:39AM -4.4721 -63.8669 140° Southeast  Level Estimated
04:40AM -4.5732 -63.7822 140° Southeast  Level Estimated
04:41AM -4.6742 -63.6974 140° Southeast  Level Estimated
04:42AM -4.7752 -63.6127 140° Southeast  Level Estimated
04:43AM -4.8762 -63.5279 140° Southeast  Level Estimated
04:44AM -4.9771 -63.4431 140° Southeast  Level Estimated
04:45AM -5.0781 -63.3582 140° Southeast  Level Estimated
04:46AM -5.1791 -63.2733 140° Southeast  Level Estimated
04:47AM -5.2800 -63.1884 140° Southeast  Level Estimated
04:48AM -5.3810 -63.1035 140° Southeast  Level Estimated
04:49AM -5.4819 -63.0185 140° Southeast  Level Estimated
04:50AM -5.5828 -62.9336 140° Southeast  Level Estimated
04:51AM -5.6837 -62.8485 140° Southeast  Level Estimated
04:52AM -5.7846 -62.7635 140° Southeast  Level Estimated
04:53AM -5.8854 -62.6784 140° Southeast  Level Estimated
04:54AM -5.9863 -62.5933 140° Southeast  Level Estimated
04:55AM -6.0872 -62.5082 140° Southeast  Level Estimated
04:56AM -6.1880 -62.4230 140° Southeast  Level Estimated
04:57AM -6.2888 -62.3378 140° Southeast  Level Estimated
04:58AM -6.3896 -62.2526 140° Southeast  Level Estimated
04:59AM -6.4904 -62.1673 140° Southeast  Level Estimated
05:00AM -6.5912 -62.0820 140° Southeast  Level Estimated
05:01AM -6.6919 -61.9967 140° Southeast  Level Estimated
05:02AM -6.7927 -61.9113 140° Southeast  Level Estimated
05:03AM -6.8934 -61.8259 140° Southeast  Level Estimated
05:04AM -6.9942 -61.7405 140° Southeast  Level Estimated
05:05AM -7.0949 -61.6550 140° Southeast  Level Estimated
05:06AM -7.1955 -61.5695 140° Southeast  Level Estimated
05:07AM -7.2962 -61.4839 140° Southeast  Level Estimated
05:08AM -7.3969 -61.3983 140° Southeast  Level Estimated
05:09AM -7.4975 -61.3127 140° Southeast  Level Estimated
05:10AM -7.5981 -61.2270 140° Southeast  Level Estimated
05:11AM -7.6987 -61.1413 140° Southeast  Level Estimated
05:12AM -7.7993 -61.0556 140° Southeast  Level Estimated
05:13AM -7.8999 -60.9698 140° Southeast  Level Estimated
05:14AM -8.0005 -60.8839 140° Southeast  Level Estimated
05:15AM -8.1010 -60.7980 140° Southeast  Level Estimated
05:16AM -8.2015 -60.7121 140° Southeast  Level Estimated
05:17AM -8.3020 -60.6262 140° Southeast  Level Estimated
05:18AM -8.4025 -60.5401 140° Southeast  Level Estimated
05:19AM -8.5029 -60.4541 140° Southeast  Level Estimated
05:20AM -8.6034 -60.3680 140° Southeast  Level Estimated
05:21AM -8.7038 -60.2819 140° Southeast  Level Estimated
05:22AM -8.8042 -60.1957 140° Southeast  Level Estimated
05:23AM -8.9046 -60.1094 140° Southeast  Level Estimated
05:24AM -9.0050 -60.0232 140° Southeast  Level Estimated
05:25AM -9.1053 -59.9368 140° Southeast  Level Estimated
05:26AM -9.2057 -59.8504 140° Southeast  Level Estimated
05:27AM -9.3060 -59.7640 140° Southeast  Level Estimated
05:28AM -9.4063 -59.6775 140° Southeast  Level Estimated
05:29AM -9.5065 -59.5910 140° Southeast  Level Estimated
05:30AM -9.6068 -59.5044 140° Southeast  Level Estimated
05:31AM -9.7070 -59.4178 140° Southeast  Level Estimated
05:32AM -9.8072 -59.3311 140° Southeast  Level Estimated
05:33AM -9.9074 -59.2444 140° Southeast  Level Estimated
05:34AM -10.0075 -59.1576 140° Southeast  Level Estimated
05:35AM -10.1076 -59.0707 140° Southeast  Level Estimated
05:36AM -10.2078 -58.9838 139° Southeast  Level Estimated
05:37AM -10.3078 -58.8969 139° Southeast  Level Estimated
05:38AM -10.4079 -58.8099 139° Southeast  Level Estimated
05:39AM -10.5079 -58.7228 139° Southeast  Level Estimated
05:40AM -10.6080 -58.6357 139° Southeast  Level Estimated
05:41AM -10.7079 -58.5485 139° Southeast  Level Estimated
05:42AM -10.8079 -58.4613 139° Southeast  Level Estimated
05:43AM -10.9079 -58.3740 139° Southeast  Level Estimated
05:44AM -11.0078 -58.2867 139° Southeast  Level Estimated
05:45AM -11.1077 -58.1992 139° Southeast  Level Estimated
05:46AM -11.2075 -58.1118 139° Southeast  Level Estimated
05:47AM -11.3074 -58.0242 139° Southeast  Level Estimated
05:48AM -11.4072 -57.9366 139° Southeast  Level Estimated
05:49AM -11.5070 -57.8490 139° Southeast  Level Estimated
05:50AM -11.6067 -57.7613 139° Southeast  Level Estimated
05:51AM -11.7065 -57.6735 139° Southeast  Level Estimated
05:52AM -11.8062 -57.5857 139° Southeast  Level Estimated
05:53AM -11.9059 -57.4977 139° Southeast  Level Estimated
05:54AM -12.0055 -57.4098 139° Southeast  Level Estimated
05:55AM -12.1052 -57.3218 139° Southeast  Level Estimated
05:56AM -12.2048 -57.2337 139° Southeast  Level Estimated
05:57AM -12.3043 -57.1455 139° Southeast  Level Estimated
05:58AM -12.4039 -57.0573 139° Southeast  Level Estimated
05:59AM -12.5034 -56.9689 139° Southeast  Level Estimated
06:00AM -12.6029 -56.8806 139° Southeast  Level Estimated
06:01AM -12.7024 -56.7921 139° Southeast  Level Estimated
06:02AM -12.8018 -56.7036 139° Southeast  Level Estimated
06:03AM -12.9012 -56.6151 139° Southeast  Level Estimated
06:04AM -13.0006 -56.5264 139° Southeast  Level Estimated
06:05AM -13.0999 -56.4377 139° Southeast  Level Estimated
06:06AM -13.1992 -56.3489 139° Southeast  Level Estimated
06:07AM -13.2985 -56.2600 139° Southeast  Level Estimated
06:08AM -13.3977 -56.1711 139° Southeast  Level Estimated
06:09AM -13.4970 -56.0821 139° Southeast  Level Estimated
06:10AM -13.5962 -55.9930 139° Southeast  Level Estimated
06:11AM -13.6953 -55.9039 139° Southeast  Level Estimated
06:12AM -13.7944 -55.8146 139° Southeast  Level Estimated
06:12AM -14.4700 -55.3940 139° Southeast 494 568 37,000  Level FlightAware
06:13AM -13.8935 -55.7253 139° Southeast  Level Estimated
06:13AM -14.5660 -55.2970 136° Southeast 494 568 37,000  Level FlightAware
06:13AM -14.6100 -55.2530 136° Southeast 493 567 37,000  Level FlightAware
06:14AM -13.9926 -55.6359 139° Southeast  Level Estimated
06:14AM -14.6630 -55.2000 136° Southeast 493 567 37,000  Level FlightAware
06:15AM -14.7340 -55.1280 136° Southeast 491 565 37,000  Level FlightAware
06:15AM -14.7870 -55.0730 135° Southeast 491 565 37,000  Level FlightAware
06:16AM -14.8200 -55.0390 135° Southeast 491 565 37,000  Level FlightAware
06:17AM -14.8850 -54.9710 135° Southeast 491 565 37,000  Level FlightAware
06:17AM -14.9340 -54.9210 135° Southeast 491 565 37,000  Level FlightAware
06:18AM -14.9830 -54.8700 135° Southeast 491 565 37,000  Level FlightAware
06:18AM -15.0340 -54.8170 135° Southeast 491 565 37,000  Level FlightAware
06:19AM -15.0830 -54.7670 135° Southeast 491 565 37,000  Level FlightAware
06:20AM -15.1320 -54.7160 135° Southeast 491 565 37,000  Level FlightAware
06:20AM -15.1650 -54.6820 135° Southeast 491 565 37,000  Level FlightAware
06:21AM -15.2140 -54.6310 135° Southeast 491 565 37,000  Level FlightAware
06:21AM -15.2650 -54.5780 135° Southeast 491 565 37,000  Level FlightAware
06:22AM -15.3150 -54.5260 135° Southeast 491 565 37,000  Level FlightAware
06:22AM -15.3640 -54.4750 135° Southeast 491 565 37,000  Level FlightAware
06:23AM -15.4150 -54.4230 135° Southeast 491 565 37,000  Level FlightAware
06:24AM -15.4640 -54.3720 135° Southeast 491 565 37,000  Level FlightAware
06:24AM -15.5130 -54.3210 135° Southeast 491 565 37,000  Level FlightAware
06:25AM -15.5460 -54.2870 135° Southeast 491 565 37,000  Level FlightAware
06:28AM -15.8337 -54.0193 138° Southeast  Level Estimated
06:29AM -15.9317 -53.9279 138° Southeast  Level Estimated
06:30AM -16.0296 -53.8363 138° Southeast  Level Estimated
06:31AM -16.1276 -53.7447 138° Southeast  Level Estimated
06:32AM -16.2255 -53.6530 138° Southeast  Level Estimated
06:33AM -16.3233 -53.5612 138° Southeast  Level Estimated
06:34AM -16.4211 -53.4694 138° Southeast  Level Estimated
06:35AM -16.5189 -53.3774 138° Southeast  Level Estimated
06:36AM -16.6166 -53.2853 138° Southeast  Level Estimated
06:37AM -16.7143 -53.1931 138° Southeast  Level Estimated
06:38AM -16.8119 -53.1009 138° Southeast  Level Estimated
06:39AM -16.9095 -53.0085 138° Southeast  Level Estimated
06:40AM -17.0071 -52.9161 138° Southeast  Level Estimated
06:41AM -17.1046 -52.8235 138° Southeast  Level Estimated
06:42AM -17.2021 -52.7309 138° Southeast  Level Estimated
06:43AM -17.2995 -52.6381 138° Southeast  Level Estimated
06:44AM -17.3969 -52.5453 138° Southeast  Level Estimated
06:45AM -17.4942 -52.4524 138° Southeast  Level Estimated
06:46AM -17.5916 -52.3593 138° Southeast  Level Estimated
06:47AM -17.6888 -52.2662 138° Southeast  Level Estimated
06:48AM -17.7860 -52.1729 138° Southeast  Level Estimated
06:49AM -17.8832 -52.0796 138° Southeast  Level Estimated
06:50AM -17.9803 -51.9862 138° Southeast  Level Estimated
06:51AM -18.0774 -51.8926 138° Southeast  Level Estimated
06:52AM -18.1745 -51.7990 137° Southeast  Level Estimated
06:53AM -18.2715 -51.7052 137° Southeast  Level Estimated
06:54AM -18.3684 -51.6114 137° Southeast  Level Estimated
06:55AM -18.4653 -51.5174 137° Southeast  Level Estimated
06:56AM -18.5622 -51.4233 137° Southeast  Level Estimated
06:57AM -18.6590 -51.3291 137° Southeast  Level Estimated
06:58AM -18.7557 -51.2349 137° Southeast  Level Estimated
06:59AM -18.8524 -51.1405 137° Southeast  Level Estimated
06:59AM -19.0810 -50.5830 137° Southeast 497 572 37,000  Level FlightAware
07:00AM -19.1490 -50.5080 134° Southeast 497 572 37,000  Level FlightAware
07:00AM -19.2030 -50.4490 134° Southeast 496 571 37,000  Level FlightAware
07:01AM -19.2510 -50.3970 134° Southeast 496 571 37,000  Level FlightAware
07:02AM -19.3300 -50.3090 134° Southeast 496 571 37,000  Level FlightAware
07:02AM -19.3900 -50.2440 134° Southeast 497 572 37,000  Level FlightAware
07:03AM -19.4390 -50.1890 133° Southeast 496 571 37,000  Level FlightAware
07:03AM -19.4930 -50.1300 134° Southeast 497 572 37,000  Level FlightAware
07:04AM -19.5600 -50.0560 134° Southeast 496 571 37,000  Level FlightAware
07:05AM -19.6290 -49.9810 134° Southeast 495 570 37,000  Level FlightAware
07:05AM -19.6950 -49.9090 134° Southeast 496 571 37,000  Level FlightAware
07:06AM -19.7620 -49.8350 134° Southeast 496 571 37,000  Level FlightAware
07:07AM -19.8260 -49.7650 134° Southeast 496 571 37,000  Level FlightAware
07:08AM -19.9090 -49.6750 134° Southeast 495 570 37,000  Level FlightAware
07:08AM -19.9790 -49.5980 134° Southeast 496 571 37,000  Level FlightAware
07:09AM -20.0270 -49.5460 134° Southeast 496 571 37,000  Level FlightAware
07:10AM -20.0980 -49.4670 134° Southeast 497 572 37,000  Level FlightAware
07:10AM -20.1590 -49.4000 134° Southeast 497 572 37,000  Level FlightAware
07:11AM -20.1970 -49.3580 134° Southeast 497 572 37,000  Level FlightAware
07:12AM -20.2940 -49.2510 134° Southeast 497 572 37,000  Level FlightAware
07:12AM -20.3590 -49.1790 134° Southeast 497 572 37,000  Level FlightAware
07:13AM -20.4330 -49.0970 134° Southeast 497 572 37,000  Level FlightAware
07:14AM -20.4790 -49.0460 134° Southeast 497 572 37,000  Level FlightAware
07:14AM -20.5430 -48.9750 134° Southeast 497 572 37,000  Level FlightAware
07:15AM -20.6160 -48.8950 134° Southeast 499 574 37,000  Level FlightAware
07:16AM -20.6720 -48.8320 134° Southeast 500 575 37,000  Level FlightAware
07:16AM -20.7440 -48.7520 134° Southeast 501 577 37,000  Level FlightAware
07:17AM -20.8010 -48.6900 135° Southeast 499 574 37,000  Level FlightAware
07:17AM -20.8560 -48.6420 141° Southeast 497 572 37,000  Level FlightAware
07:18AM -20.9190 -48.5870 141° Southeast 498 573 37,000  Level FlightAware
07:19AM -20.9850 -48.5290 141° Southeast 498 573 37,000  Level FlightAware
07:19AM -21.0440 -48.4750 139° Southeast 498 573 37,000  Level FlightAware
07:20AM -21.1460 -48.3830 140° Southeast 499 574 37,000  Level FlightAware
07:21AM -21.1950 -48.3380 139° Southeast 499 574 37,000  Level FlightAware
07:21AM -21.2590 -48.2810 140° Southeast 499 574 37,000  Level FlightAware
07:22AM -21.3090 -48.2370 141° Southeast 498 573 37,000  Level FlightAware
07:22AM -21.3760 -48.1770 140° Southeast 498 573 37,000  Level FlightAware
07:23AM -21.4490 -48.1130 141° Southeast 499 574 37,000  Level FlightAware
07:24AM -21.5200 -48.0500 140° Southeast 500 575 37,000  Level FlightAware
07:24AM -21.5870 -47.9890 140° Southeast 501 577 37,000  Level FlightAware
07:25AM -21.6480 -47.9350 141° Southeast 500 575 37,000  Level FlightAware
07:25AM -21.7110 -47.8790 140° Southeast 499 574 37,000 -600 Level FlightAware
07:26AM -21.7750 -47.8210 140° Southeast 499 574 36,300 -2,040 Descending FlightAware
07:27AM -21.8540 -47.7500 140° Southeast 508 585 34,300 -2,820 Descending FlightAware
07:27AM -21.9340 -47.6790 141° Southeast 513 590 32,200 -2,580 Descending FlightAware
07:28AM -22.0070 -47.6130 140° Southeast 508 585 30,700 -2,280 Descending FlightAware
07:29AM -22.0680 -47.5580 140° Southeast 503 579 29,400 -2,160 Descending FlightAware
07:29AM -22.1390 -47.4940 140° Southeast 497 572 28,100 -1,980 Descending FlightAware
07:30AM -22.2500 -47.3940 140° Southeast 483 556 26,000 -1,920 Descending FlightAware
07:31AM -22.3150 -47.3350 140° Southeast 476 548 24,900 -1,800 Descending FlightAware
07:32AM -22.3820 -47.2750 140° Southeast 468 539 23,700 -1,860 Descending FlightAware
07:32AM -22.4450 -47.2180 140° Southeast 459 528 22,500 -1,920 Descending FlightAware
07:33AM -22.5030 -47.1650 140° Southeast 451 519 21,400 -1,800 Descending FlightAware
07:34AM -22.5590 -47.1150 140° Southeast 442 509 20,400 -1,140 Descending FlightAware
07:34AM -22.6260 -47.0770 152° Southeast 426 490 20,000 -540 Descending FlightAware
07:35AM -22.6840 -47.0520 158° South 420 483 19,800 -1,320 Descending FlightAware
07:35AM -22.7640 -47.0200 160° South 417 480 18,400 -1,980 Descending FlightAware
07:36AM -22.8290 -46.9920 158° South 410 472 17,200 -2,220 Descending FlightAware
07:37AM -22.9080 -46.9590 159° South 403 464 15,500 -2,280 Descending FlightAware
07:37AM -22.9720 -46.9320 159° South 359 413 14,100 -1,920 Descending FlightAware
07:38AM -23.0210 -46.9120 159° South 325 374 13,200 -1,380 Descending FlightAware
07:39AM -23.0730 -46.8890 158° South 294 338 12,500 -1,200 Descending FlightAware
07:39AM -23.1140 -46.8730 160° South 288 331 11,800 -1,260 Descending FlightAware
07:40AM -23.1560 -46.8890 199° South 281 323 11,100 -840 Descending FlightAware
07:40AM -23.1640 -46.9190 254° West 263 303 11,000 -120 Descending FlightAware
07:41AM -23.1450 -46.9560 299° West 266 306 11,000  Level FlightAware
07:41AM -23.1050 -46.9750 336° Northwest 270 311 11,000  Level FlightAware
07:42AM -23.0610 -46.9930 339° North 277 319 11,000  Level FlightAware
07:43AM -23.0150 -46.9750 20° North 277 319 11,000  Level FlightAware
07:43AM -23.0070 -46.9490 72° East 275 316 11,000  Level FlightAware
07:44AM -23.0580 -46.8950 136° Southeast 275 316 11,000  Level FlightAware
07:45AM -23.1300 -46.8550 153° Southeast 275 316 11,000  Level FlightAware
07:46AM -23.1370 -46.8080 99° East 269 310 11,000  Level FlightAware
07:47AM -23.1380 -46.7270 91° East 269 310 11,000 -120 Level FlightAware
07:47AM -23.1380 -46.6780 90° East 254 292 10,900 -420 Descending FlightAware
07:48AM -23.1450 -46.6330 100° East 237 273 10,500 -900 Descending FlightAware
07:48AM -23.1690 -46.6200 154° Southeast 222 255 10,000 -1,740 Descending FlightAware
07:49AM -23.2010 -46.6460 217° Southwest 230 265 8,700 -1,920 Descending FlightAware
07:50AM -23.2260 -46.6790 230° Southwest 235 270 7,600 -1,380 Descending FlightAware
07:50AM -23.2520 -46.7160 233° Southwest 233 268 7,000 -480 Descending FlightAware
07:51AM -23.2790 -46.7470 227° Southwest 229 264 7,000  Level FlightAware
07:52AM -23.3230 -46.7540 188° South 220 253 7,000 -600 Level FlightAware
07:52AM -23.3640 -46.7530 179° South 208 239 6,200 -1,200 Descending FlightAware
07:53AM -23.3960 -46.7460 169° South 191 220 5,500 -840 Descending FlightAware
07:53AM -23.4180 -46.7360 157° South 170 196 5,300 -300 Descending FlightAware
07:54AM -23.4420 -46.7140 140° Southeast 159 183 5,200 -180 Descending FlightAware
07:55AM -23.4590 -46.6900 128° Southeast 155 178 5,100 -600 Descending FlightAware
07:55AM -23.4720 -46.6550 112° Southeast 156 180 4,400 -600 Descending FlightAware
07:56AM -23.4780 -46.6350 108° East 156 180 4,400 -180 Level FlightAware
07:57AM -23.4680 -46.5970 74° East 154 177 4,200 -540 Descending FlightAware
07:57AM -23.4600 -46.5660 74° East 149 171 3,600 -840 Descending FlightAware
07:58AM -23.4530 -46.5410 73° East 149 171 3,200 -780 Descending FlightAware
07:59AM -23.4480 -46.5210 75° East 150 173 2,800 -780 Descending FlightAware
07:59AM -23.4430 -46.5020 74° East 153 176 2,500 -720 Descending FlightAware
08:00AM -23.4350 -46.4730 73° East 96 110 -3,540 Descending FlightAware
08:00AM -23.4340 -46.4700 70° East 76 87  Level FlightAware
08:00AM -23.4320 -46.4620 75° East 76 87  Level FlightAware